createdAt,value
2018-07-02T04:50:39.013Z,2.63
2018-07-02T04:52:02.423Z,2.60
2018-07-02T04:53:20.665Z,2.80
2018-07-02T04:54:29.964Z,2.47
2018-07-02T04:55:37.913Z,2.20
2018-07-02T04:56:45.868Z,2.50
2018-07-02T04:57:53.793Z,2.60
2018-07-02T04:59:00.177Z,2.40
2018-07-02T05:00:08.213Z,2.27
2018-07-02T05:01:16.386Z,2.20
2018-07-02T05:02:22.872Z,2.67
2018-07-02T05:03:29.296Z,2.50
2018-07-02T05:04:35.730Z,2.40
2018-07-02T05:05:43.057Z,2.30
2018-07-02T05:06:51.094Z,2.43
2018-07-02T05:07:57.512Z,2.97
2018-07-02T05:09:05.302Z,2.50
2018-07-02T05:10:12.006Z,2.30
2018-07-02T05:11:18.376Z,2.30
2018-07-02T05:12:25.590Z,2.20
2018-07-02T05:13:32.763Z,2.30
2018-07-02T05:14:40.192Z,2.40
2018-07-02T05:15:46.403Z,2.50
2018-07-02T05:16:52.725Z,2.77
2018-07-02T05:17:59.018Z,2.53
2018-07-02T05:19:06.240Z,2.37
2018-07-02T05:20:13.332Z,2.40
2018-07-02T05:21:21.355Z,2.67
2018-07-02T05:22:27.772Z,2.60
2018-07-02T05:23:34.212Z,2.30
2018-07-02T05:24:42.073Z,2.70
2018-07-02T05:25:48.424Z,2.30
2018-07-02T05:26:55.686Z,2.53
2018-07-02T05:28:02.242Z,2.30
2018-07-02T05:29:09.372Z,2.50
2018-07-02T05:30:16.442Z,1.97
2018-07-02T05:31:23.828Z,2.50
2018-07-02T05:32:30.986Z,2.40
2018-07-02T05:33:38.495Z,2.27
2018-07-02T05:34:44.822Z,2.17
2018-07-02T05:35:53.938Z,2.50
2018-07-02T05:37:02.526Z,2.47
2018-07-02T05:38:09.662Z,2.23
2018-07-02T05:39:16.705Z,2.37
2018-07-02T05:40:23.151Z,2.20
2018-07-02T05:41:30.925Z,2.63
2018-07-02T05:42:37.342Z,2.87
2018-07-02T05:43:43.930Z,2.30
2018-07-02T05:44:50.414Z,3.50
2018-07-02T05:45:57.818Z,2.53
2018-07-02T05:47:04.132Z,2.17
2018-07-02T05:48:10.533Z,2.67
2018-07-02T05:49:17.994Z,2.00
2018-07-02T05:50:24.358Z,2.33
2018-07-02T05:51:30.629Z,2.27
2018-07-02T05:52:37.039Z,2.43
2018-07-02T05:53:43.541Z,2.00
2018-07-02T05:54:51.105Z,2.23
2018-07-02T05:55:58.365Z,2.27
2018-07-02T05:57:05.270Z,1.97
2018-07-02T05:58:11.725Z,2.20
2018-07-02T05:59:18.058Z,2.10
2018-07-02T06:00:26.636Z,2.30
2018-07-02T06:01:33.956Z,1.83
2018-07-02T06:02:40.415Z,2.10
2018-07-02T06:03:47.500Z,2.33
2018-07-02T06:04:55.437Z,1.70
2018-07-02T06:06:02.568Z,2.03
2018-07-02T06:07:09.757Z,2.30
2018-07-02T06:08:16.656Z,2.20
2018-07-02T06:09:23.083Z,2.17
2018-07-02T06:10:29.491Z,2.23
2018-07-02T06:11:37.102Z,2.30
2018-07-02T06:12:43.341Z,2.20
2018-07-02T06:13:51.555Z,2.03
2018-07-02T06:14:58.896Z,2.10
2018-07-02T06:16:05.214Z,2.30
2018-07-02T06:17:11.708Z,2.13
2018-07-02T06:18:19.476Z,2.10
2018-07-02T06:19:26.511Z,1.70
2018-07-02T06:20:34.120Z,2.20
2018-07-02T06:21:40.436Z,2.30
2018-07-02T06:22:46.735Z,1.90
2018-07-02T06:23:54.285Z,2.00
2018-07-02T06:25:00.650Z,2.10
2018-07-02T06:26:09.011Z,2.10
2018-07-02T06:27:15.232Z,1.83
2018-07-02T06:28:23.045Z,2.13
2018-07-02T06:29:29.453Z,1.80
2018-07-02T06:30:35.789Z,2.00
2018-07-02T06:31:43.474Z,2.00
2018-07-02T06:32:50.794Z,1.90
2018-07-02T06:33:56.979Z,2.40
2018-07-02T06:35:03.112Z,2.50
2018-07-02T06:36:09.762Z,2.00
2018-07-02T06:37:16.358Z,2.20
2018-07-02T06:38:22.996Z,2.10
2018-07-02T06:39:29.294Z,2.17
2018-07-02T06:40:35.722Z,2.30
2018-07-02T06:41:42.042Z,2.00
2018-07-02T06:42:48.624Z,2.20
2018-07-02T06:43:55.086Z,2.10
2018-07-02T06:45:01.148Z,2.30
2018-07-02T06:46:08.049Z,2.17
2018-07-02T06:47:14.324Z,2.10
2018-07-02T06:48:21.329Z,2.00
2018-07-02T06:49:27.765Z,2.30
2018-07-02T06:50:33.957Z,1.97
2018-07-02T06:51:40.407Z,1.90
2018-07-02T06:52:46.760Z,2.13
2018-07-02T06:53:53.970Z,2.00
2018-07-02T06:55:01.507Z,1.90
2018-07-02T06:56:07.975Z,1.97
2018-07-02T06:57:14.303Z,2.07
2018-07-02T06:58:20.531Z,2.00
2018-07-02T06:59:26.701Z,2.27
2018-07-02T07:00:32.988Z,1.87
2018-07-02T07:01:39.527Z,1.83
2018-07-02T07:02:45.863Z,1.70
2018-07-02T07:03:54.447Z,1.87
2018-07-02T07:05:00.783Z,2.00
2018-07-02T07:06:07.377Z,2.10
2018-07-02T07:07:13.533Z,1.77
2018-07-02T07:08:19.955Z,1.93
2018-07-02T07:09:30.751Z,2.00
2018-07-02T07:10:37.076Z,2.20
2018-07-02T07:11:43.389Z,1.97
2018-07-02T07:12:49.831Z,1.80
2018-07-02T07:13:57.604Z,1.73
2018-07-02T07:15:03.809Z,2.23
2018-07-02T07:16:11.874Z,1.67
2018-07-02T07:17:18.458Z,1.97
2018-07-02T07:18:26.190Z,1.80
2018-07-02T07:19:33.912Z,1.60
2018-07-02T07:20:40.632Z,1.70
2018-07-02T07:21:46.837Z,1.80
2018-07-02T07:22:54.702Z,1.57
2018-07-02T07:24:01.174Z,1.90
2018-07-02T07:25:07.665Z,1.80
2018-07-02T07:26:14.090Z,2.00
2018-07-02T07:27:20.352Z,1.70
2018-07-02T07:28:27.862Z,1.80
2018-07-02T07:29:35.725Z,2.00
2018-07-02T07:30:41.956Z,1.70
2018-07-02T07:31:49.281Z,1.67
2018-07-02T07:32:55.626Z,2.07
2018-07-02T07:34:02.962Z,1.90
2018-07-02T07:35:09.316Z,1.83
2018-07-02T07:36:15.869Z,1.60
2018-07-02T07:37:22.278Z,1.87
2018-07-02T07:38:29.466Z,1.63
2018-07-02T07:39:35.769Z,1.70
2018-07-02T07:40:41.942Z,2.20
2018-07-02T07:41:48.602Z,1.90
2018-07-02T07:42:55.024Z,1.70
2018-07-02T07:44:01.432Z,1.93
2018-07-02T07:45:07.846Z,1.90
2018-07-02T07:46:15.378Z,1.80
2018-07-02T07:47:22.262Z,1.70
2018-07-02T07:48:29.821Z,1.90
2018-07-02T07:49:36.149Z,1.90
2018-07-02T07:50:42.409Z,1.63
2018-07-02T07:51:50.306Z,1.57
2018-07-02T07:52:57.762Z,1.63
2018-07-02T07:54:05.868Z,1.60
2018-07-02T07:55:12.370Z,1.70
2018-07-02T07:56:18.823Z,1.63
2018-07-02T07:57:25.680Z,2.00
2018-07-02T07:58:32.384Z,1.70
2018-07-02T07:59:40.984Z,1.80
2018-07-02T08:00:47.208Z,1.70
2018-07-02T08:01:54.426Z,1.70
2018-07-02T08:03:00.766Z,2.03
2018-07-02T08:04:07.188Z,1.97
2018-07-02T08:05:13.501Z,1.90
2018-07-02T08:06:20.904Z,1.87
2018-07-02T08:07:27.271Z,2.13
2018-07-02T08:08:33.696Z,2.00
2018-07-02T08:09:39.974Z,2.17
2018-07-02T08:10:46.684Z,2.03
2018-07-02T08:11:53.936Z,2.03
2018-07-02T08:13:00.673Z,1.97
2018-07-02T08:14:06.869Z,2.10
2018-07-02T08:15:14.025Z,1.80
2018-07-02T08:16:20.750Z,2.10
2018-07-02T08:17:27.150Z,1.70
2018-07-02T08:18:35.012Z,2.10
2018-07-02T08:19:42.270Z,2.00
2018-07-02T08:20:50.075Z,2.00
2018-07-02T08:21:56.426Z,2.23
2018-07-02T08:23:02.653Z,2.13
2018-07-02T08:24:10.195Z,1.90
2018-07-02T08:25:17.614Z,1.73
2018-07-02T08:26:24.052Z,1.77
2018-07-02T08:27:30.352Z,1.90
2018-07-02T08:28:36.504Z,2.30
2018-07-02T08:29:42.741Z,4.93
2018-07-02T08:30:49.497Z,3.17
2018-07-02T08:31:56.211Z,2.40
2018-07-02T08:33:02.740Z,2.30
2018-07-02T08:34:09.090Z,2.10
2018-07-02T08:35:16.515Z,2.27
2018-07-02T08:36:22.712Z,2.40
2018-07-02T08:37:28.912Z,2.50
2018-07-02T08:38:35.434Z,2.50
2018-07-02T08:39:42.504Z,2.10
2018-07-02T08:40:48.742Z,2.53
2018-07-02T08:41:57.416Z,2.23
2018-07-02T08:43:03.622Z,2.00
2018-07-02T08:44:10.156Z,2.20
2018-07-02T08:45:17.234Z,2.30
2018-07-02T08:46:23.369Z,2.10
2018-07-02T08:47:29.676Z,1.90
2018-07-02T08:48:36.032Z,2.30
2018-07-02T08:49:44.060Z,2.30
2018-07-02T08:50:51.037Z,1.90
2018-07-02T08:51:58.755Z,2.20
2018-07-02T08:53:05.117Z,2.40
2018-07-02T08:54:11.305Z,2.10
2018-07-02T08:55:17.740Z,2.20
2018-07-02T08:56:24.108Z,2.30
2018-07-02T08:57:31.307Z,2.13
2018-07-02T08:58:37.633Z,2.03
2018-07-02T08:59:45.012Z,2.13
2018-07-02T09:00:51.145Z,2.30
2018-07-02T09:01:57.281Z,2.00
2018-07-02T09:03:03.556Z,2.20
2018-07-02T09:04:10.092Z,2.20
2018-07-02T09:05:17.956Z,2.17
2018-07-02T09:06:25.761Z,2.40
2018-07-02T09:07:31.916Z,2.00
2018-07-02T09:08:38.295Z,2.00
2018-07-02T09:09:44.658Z,2.30
2018-07-02T09:10:51.083Z,1.80
2018-07-02T09:11:57.919Z,2.03
2018-07-02T09:13:04.345Z,2.00
2018-07-02T09:14:10.477Z,1.97
2018-07-02T09:15:16.673Z,1.90
2018-07-02T09:16:22.891Z,1.93
2018-07-02T09:17:31.090Z,2.17
2018-07-02T09:18:37.249Z,1.90
2018-07-02T09:19:43.640Z,1.80
2018-07-02T09:20:49.999Z,2.07
2018-07-02T09:21:58.114Z,1.70
2018-07-02T09:23:04.868Z,1.90
2018-07-02T09:24:11.072Z,2.30
2018-07-02T09:25:18.805Z,1.90
2018-07-02T09:26:25.368Z,2.10
2018-07-02T09:27:31.566Z,2.00
2018-07-02T09:28:38.101Z,2.10
2018-07-02T09:29:45.289Z,1.83
2018-07-02T09:30:51.501Z,2.30
2018-07-02T09:31:58.317Z,2.03
2018-07-02T09:33:04.625Z,2.20
2018-07-02T09:34:10.939Z,1.97
2018-07-02T09:35:17.129Z,2.00
2018-07-02T09:36:23.461Z,2.17
2018-07-02T09:37:30.859Z,1.80
2018-07-02T09:38:37.041Z,2.23
2018-07-02T09:39:43.312Z,2.20
2018-07-02T09:40:49.761Z,2.07
2018-07-02T09:41:56.911Z,2.10
2018-07-02T09:43:03.315Z,2.03
2018-07-02T09:44:10.939Z,2.90
2018-07-02T09:45:16.943Z,2.43
2018-07-02T09:46:23.261Z,1.97
2018-07-02T09:47:29.826Z,2.00
2018-07-02T09:48:36.157Z,2.30
2018-07-02T09:49:42.285Z,2.17
2018-07-02T09:50:48.739Z,2.00
2018-07-02T09:51:55.009Z,2.10
2018-07-02T09:53:01.237Z,2.73
2018-07-02T09:54:07.445Z,2.17
2018-07-02T09:55:15.077Z,2.13
2018-07-02T09:56:22.265Z,1.90
2018-07-02T09:57:30.409Z,1.93
2018-07-02T09:58:36.993Z,2.40
2018-07-02T09:59:43.249Z,2.73
2018-07-02T10:00:49.495Z,2.40
2018-07-02T10:01:55.995Z,2.60
2018-07-02T10:03:02.433Z,2.60
2018-07-02T10:04:08.797Z,2.57
2018-07-02T10:05:15.375Z,2.50
2018-07-02T10:06:21.865Z,2.43
2018-07-02T10:07:28.621Z,2.57
2018-07-02T10:08:35.066Z,2.20
2018-07-02T10:09:42.466Z,2.27
2018-07-02T10:10:48.793Z,2.10
2018-07-02T10:11:56.013Z,2.40
2018-07-02T10:13:02.309Z,2.20
2018-07-02T10:14:08.536Z,2.20
2018-07-02T10:15:14.777Z,2.27
2018-07-02T10:16:22.127Z,2.00
2018-07-02T10:17:28.585Z,2.50
2018-07-02T10:18:36.389Z,2.40
2018-07-02T10:19:42.714Z,2.33
2018-07-02T10:20:48.916Z,2.20
2018-07-02T10:21:56.802Z,2.30
2018-07-02T10:23:02.902Z,2.17
2018-07-02T10:24:09.212Z,2.03
2018-07-02T10:25:15.454Z,2.13
2018-07-02T10:26:23.081Z,2.27
2018-07-02T10:27:29.433Z,2.37
2018-07-02T10:28:35.989Z,1.97
2018-07-02T10:29:42.758Z,2.30
2018-07-02T10:30:50.674Z,2.10
2018-07-02T10:31:56.962Z,2.30
2018-07-02T10:33:03.382Z,2.10
2018-07-02T10:34:09.927Z,2.30
2018-07-02T10:35:16.260Z,2.20
2018-07-02T10:36:22.648Z,2.17
2018-07-02T10:37:28.911Z,1.90
2018-07-02T10:38:35.122Z,2.10
2018-07-02T10:39:41.381Z,2.43
2018-07-02T10:40:47.744Z,1.93
2018-07-02T10:41:55.178Z,2.40
2018-07-02T10:43:01.666Z,2.50
2018-07-02T10:44:08.188Z,2.40
2018-07-02T10:45:14.658Z,2.20
2018-07-02T10:46:20.911Z,2.57
2018-07-02T10:47:27.274Z,2.40
2018-07-02T10:48:33.726Z,2.60
2018-07-02T10:51:11.730Z,2.00
2018-07-02T10:52:17.886Z,1.97
2018-07-02T10:53:24.148Z,2.13
2018-07-02T10:54:30.228Z,1.80
2018-07-02T10:55:37.623Z,2.00
2018-07-02T10:56:43.880Z,2.20
2018-07-02T10:57:50.167Z,2.40
2018-07-02T10:58:56.268Z,2.40
2018-07-02T11:00:02.460Z,2.00
2018-07-02T11:01:08.586Z,2.40
2018-07-02T11:02:15.274Z,2.40
2018-07-02T11:03:21.389Z,2.03
2018-07-02T11:04:27.819Z,1.80
2018-07-02T11:05:34.168Z,1.80
2018-07-02T11:06:40.317Z,1.90
2018-07-02T11:07:46.530Z,1.87
2018-07-02T11:08:54.165Z,2.20
2018-07-02T11:10:02.221Z,2.07
2018-07-02T11:11:08.307Z,1.80
2018-07-02T11:12:14.416Z,2.10
2018-07-02T11:13:20.440Z,2.10
2018-07-02T11:14:26.635Z,2.47
2018-07-02T11:15:32.818Z,2.30
2018-07-02T11:16:40.748Z,2.03
2018-07-02T11:17:50.037Z,2.60
2018-07-02T11:18:57.064Z,1.97
2018-07-02T11:20:03.238Z,2.40
2018-07-02T11:21:09.552Z,2.20
2018-07-02T11:22:16.836Z,2.53
2018-07-02T11:23:23.085Z,2.20
2018-07-02T11:24:29.432Z,2.13
2018-07-02T11:25:37.908Z,1.73
2018-07-02T11:26:43.962Z,1.93
2018-07-02T11:27:50.134Z,2.10
2018-07-02T11:28:56.554Z,2.40
2018-07-02T11:30:02.643Z,2.53
2018-07-02T11:31:08.880Z,2.20
2018-07-02T11:32:14.984Z,2.00
2018-07-02T11:33:21.294Z,2.27
2018-07-02T11:34:28.016Z,2.27
2018-07-02T11:35:35.942Z,2.60
2018-07-02T11:36:43.112Z,2.17
2018-07-02T11:37:49.709Z,2.20
2018-07-02T11:38:55.812Z,2.50
2018-07-02T11:40:02.003Z,2.77
2018-07-02T11:41:09.020Z,2.60
2018-07-02T11:42:16.261Z,2.50
2018-07-02T11:43:22.448Z,2.03
2018-07-02T11:44:30.180Z,2.37
2018-07-02T11:45:36.342Z,2.30
2018-07-02T11:46:42.426Z,2.20
2018-07-02T11:47:48.928Z,2.07
2018-07-02T11:48:55.373Z,2.23
2018-07-02T11:50:02.013Z,2.13
2018-07-02T11:51:08.701Z,2.10
2018-07-02T11:52:15.609Z,2.30
2018-07-02T11:53:22.257Z,2.20
2018-07-02T11:54:29.469Z,2.10
2018-07-02T11:55:35.603Z,2.60
2018-07-02T11:56:42.036Z,2.30
2018-07-02T11:57:48.390Z,2.30
2018-07-02T11:58:56.238Z,2.30
2018-07-02T12:00:07.098Z,2.30
2018-07-02T12:01:14.872Z,2.40
2018-07-02T12:02:21.288Z,2.10
2018-07-02T12:03:28.317Z,2.30
2018-07-02T12:04:36.250Z,2.63
2018-07-02T12:05:42.264Z,2.50
2018-07-02T12:06:48.617Z,2.60
2018-07-02T12:07:56.268Z,2.63
2018-07-02T12:09:03.376Z,2.30
2018-07-02T12:10:09.663Z,2.47
2018-07-02T12:11:15.832Z,2.50
2018-07-02T12:12:22.050Z,2.00
2018-07-02T12:13:29.263Z,2.53
2018-07-02T12:14:35.653Z,2.27
2018-07-02T12:15:41.876Z,2.37
2018-07-02T12:16:49.878Z,3.10
2018-07-02T12:17:56.376Z,2.30
2018-07-02T12:19:02.646Z,2.00
2018-07-02T12:20:09.352Z,2.00
2018-07-02T12:21:15.513Z,2.50
2018-07-02T12:22:21.652Z,2.40
2018-07-02T12:23:28.126Z,2.50
2018-07-02T12:24:34.356Z,2.00
2018-07-02T12:25:40.722Z,2.10
2018-07-02T12:26:46.951Z,2.20
2018-07-02T12:27:54.690Z,2.47
2018-07-02T12:29:03.008Z,2.43
2018-07-02T12:30:09.336Z,2.70
2018-07-02T12:31:15.922Z,2.73
2018-07-02T12:32:22.095Z,3.00
2018-07-02T12:33:29.835Z,2.13
2018-07-02T12:34:36.107Z,2.07
2018-07-02T12:35:44.243Z,2.33
2018-07-02T12:36:50.349Z,2.40
2018-07-02T12:37:57.774Z,2.50
2018-07-02T12:39:04.442Z,2.30
2018-07-02T12:40:10.843Z,2.90
2018-07-02T12:41:17.001Z,2.40
2018-07-02T12:42:24.961Z,2.00
2018-07-02T12:43:31.384Z,2.27
2018-07-02T12:44:37.754Z,2.03
2018-07-02T12:45:44.626Z,2.20
2018-07-02T12:46:51.046Z,1.90
2018-07-02T12:47:57.230Z,2.27
2018-07-02T12:49:03.748Z,2.30
2018-07-02T12:50:09.987Z,2.30
2018-07-02T12:51:16.081Z,2.30
2018-07-02T12:52:22.232Z,2.67
2018-07-02T12:53:28.534Z,2.90
2018-07-02T12:54:34.826Z,2.40
2018-07-02T12:55:42.437Z,2.13
2018-07-02T12:56:51.060Z,2.80
2018-07-02T12:57:57.236Z,2.47
2018-07-02T12:59:03.692Z,1.90
2018-07-02T13:00:10.804Z,2.60
2018-07-02T13:01:17.162Z,2.50
2018-07-02T13:02:23.350Z,2.67
2018-07-02T13:03:29.638Z,2.77
2018-07-02T13:04:35.746Z,2.47
2018-07-02T13:05:43.162Z,2.00
2018-07-02T13:06:49.346Z,2.20
2018-07-02T13:07:56.331Z,2.47
2018-07-02T13:09:02.546Z,2.30
2018-07-02T13:10:08.916Z,2.60
2018-07-02T13:11:15.142Z,2.80
2018-07-02T13:12:21.264Z,2.80
2018-07-02T13:13:27.775Z,2.33
2018-07-02T13:14:34.951Z,2.30
2018-07-02T13:15:41.199Z,2.77
2018-07-02T13:16:47.300Z,2.10
2018-07-02T13:17:53.506Z,2.20
2018-07-02T13:18:59.920Z,2.83
2018-07-02T13:20:06.722Z,2.37
2018-07-02T13:21:13.812Z,2.33
2018-07-02T13:22:20.872Z,3.27
2018-07-02T13:23:27.826Z,2.47
2018-07-02T13:24:34.280Z,2.20
2018-07-02T13:25:40.856Z,2.27
2018-07-02T13:26:47.129Z,2.40
2018-07-02T13:27:54.186Z,2.50
2018-07-02T13:29:00.348Z,2.37
2018-07-02T13:30:08.635Z,2.47
2018-07-02T13:31:14.649Z,2.23
2018-07-02T13:32:20.835Z,2.63
2018-07-02T13:33:28.689Z,2.10
2018-07-02T13:34:35.938Z,2.53
2018-07-02T13:35:43.735Z,2.17
2018-07-02T13:36:50.065Z,2.20
2018-07-02T13:37:56.834Z,2.20
2018-07-02T13:39:02.831Z,2.50
2018-07-02T13:40:09.155Z,2.50
2018-07-02T13:41:15.265Z,2.67
2018-07-02T13:42:21.313Z,2.23
2018-07-02T13:43:27.426Z,2.30
2018-07-02T13:44:33.616Z,2.27
2018-07-02T13:45:41.467Z,2.17
2018-07-02T13:46:47.561Z,2.30
2018-07-02T13:47:53.889Z,2.27
2018-07-02T13:49:00.027Z,2.60
2018-07-02T13:50:07.215Z,2.17
2018-07-02T13:51:15.556Z,2.27
2018-07-02T13:52:21.811Z,2.50
2018-07-02T13:53:29.691Z,3.03
2018-07-02T13:54:35.911Z,2.73
2018-07-02T13:55:44.859Z,2.10
2018-07-02T13:56:51.179Z,2.40
2018-07-02T13:57:57.613Z,2.10
2018-07-02T13:59:05.899Z,2.40
2018-07-02T14:00:12.478Z,2.30
2018-07-02T14:01:18.630Z,2.30
2018-07-02T14:02:25.412Z,2.20
2018-07-02T14:03:33.302Z,1.97
2018-07-02T14:04:39.677Z,2.37
2018-07-02T14:05:45.843Z,2.10
2018-07-02T14:06:52.769Z,2.07
2018-07-02T14:07:59.641Z,2.33
2018-07-02T14:09:08.232Z,2.57
2018-07-02T14:10:14.537Z,2.53
2018-07-02T14:11:20.685Z,2.60
2018-07-02T14:12:26.946Z,2.20
2018-07-02T14:13:33.411Z,2.80
2018-07-02T14:14:39.675Z,2.20
2018-07-02T14:15:45.915Z,2.37
2018-07-02T14:16:52.177Z,3.03
2018-07-02T14:18:00.160Z,2.20
2018-07-02T14:19:07.242Z,2.63
2018-07-02T14:20:13.702Z,2.00
2018-07-02T14:21:19.931Z,2.20
2018-07-02T14:22:26.462Z,2.63
2018-07-02T14:23:32.660Z,2.23
2018-07-02T14:24:39.143Z,2.40
2018-07-02T14:25:45.782Z,2.70
2018-07-02T14:26:51.954Z,2.53
2018-07-02T14:27:58.863Z,2.80
2018-07-02T14:29:05.547Z,2.67
2018-07-02T14:30:13.519Z,2.50
2018-07-02T14:31:19.709Z,2.23
2018-07-02T14:32:25.894Z,3.17
2018-07-02T14:33:32.178Z,2.53
2018-07-02T14:34:38.321Z,2.60
2018-07-02T14:35:44.272Z,2.70
2018-07-02T14:36:50.414Z,2.60
2018-07-02T14:37:57.836Z,2.13
2018-07-02T14:39:05.343Z,2.17
2018-07-02T14:40:11.746Z,2.03
2018-07-02T14:41:19.406Z,2.60
2018-07-02T14:42:25.620Z,2.40
2018-07-02T14:43:33.683Z,2.10
2018-07-02T14:44:41.363Z,2.60
2018-07-02T14:45:48.357Z,2.40
2018-07-02T14:46:54.434Z,1.90
2018-07-02T14:48:00.501Z,2.80
2018-07-02T14:49:06.789Z,2.67
2018-07-02T14:50:13.604Z,2.40
2018-07-02T14:51:19.887Z,2.30
2018-07-02T14:52:26.237Z,2.30
2018-07-02T14:53:34.355Z,2.60
2018-07-02T14:54:41.093Z,2.30
2018-07-02T14:55:48.785Z,2.20
2018-07-02T14:56:55.031Z,2.60
2018-07-02T14:58:01.605Z,2.30
2018-07-02T14:59:07.642Z,2.60
2018-07-02T15:00:14.818Z,2.43
2018-07-02T15:01:21.093Z,2.30
2018-07-02T15:02:27.491Z,2.40
2018-07-02T15:03:34.881Z,2.57
2018-07-02T15:04:41.037Z,2.30
2018-07-02T15:05:47.680Z,2.90
2018-07-02T15:06:54.187Z,2.23
2018-07-02T15:08:00.423Z,2.80
2018-07-02T15:09:11.111Z,2.30
2018-07-02T15:10:17.261Z,3.10
2018-07-02T15:11:23.705Z,2.10
2018-07-02T15:12:30.002Z,2.70
2018-07-02T15:13:36.355Z,2.30
2018-07-02T15:14:42.848Z,2.80
2018-07-02T15:15:49.420Z,2.73
2018-07-02T15:16:55.643Z,2.73
2018-07-02T15:18:01.838Z,2.37
2018-07-02T15:19:08.316Z,2.50
2018-07-02T15:20:14.546Z,2.33
2018-07-02T15:21:21.627Z,2.97
2018-07-02T15:22:29.295Z,3.17
2018-07-02T15:23:35.539Z,2.60
2018-07-02T15:24:42.137Z,2.57
2018-07-02T15:25:48.807Z,2.60
2018-07-02T15:26:54.987Z,3.10
2018-07-02T15:28:01.189Z,2.37
2018-07-02T15:29:07.365Z,2.80
2018-07-02T15:30:13.559Z,2.40
2018-07-02T15:31:19.845Z,2.60
2018-07-02T15:32:26.097Z,2.83
2018-07-02T15:33:32.303Z,2.50
2018-07-02T15:34:38.589Z,2.03
2018-07-02T15:35:45.101Z,2.43
2018-07-02T15:36:51.422Z,2.40
2018-07-02T15:37:57.795Z,2.80
2018-07-02T15:39:05.508Z,2.30
2018-07-02T15:40:11.703Z,2.47
2018-07-02T15:41:18.788Z,2.47
2018-07-02T15:42:25.365Z,2.37
2018-07-02T15:43:31.867Z,2.20
2018-07-02T15:44:38.093Z,2.60
2018-07-02T15:45:44.857Z,2.67
2018-07-02T15:46:51.894Z,2.43
2018-07-02T15:47:58.287Z,2.40
2018-07-02T15:49:04.404Z,3.47
2018-07-02T15:50:10.647Z,2.57
2018-07-02T15:51:16.803Z,2.40
2018-07-02T15:52:23.025Z,2.70
2018-07-02T15:53:29.997Z,2.40
2018-07-02T15:54:36.295Z,2.60
2018-07-02T15:55:43.957Z,2.03
2018-07-02T15:56:51.846Z,2.47
2018-07-02T15:58:00.115Z,2.90
2018-07-02T15:59:06.515Z,2.60
2018-07-02T16:00:12.910Z,2.43
2018-07-02T16:01:19.106Z,2.37
2018-07-02T16:02:25.601Z,2.43
2018-07-02T16:03:31.976Z,2.47
2018-07-02T16:04:38.129Z,2.70
2018-07-02T16:05:44.297Z,2.77
2018-07-02T16:06:50.264Z,2.67
2018-07-02T16:07:56.702Z,2.73
2018-07-02T16:09:02.935Z,2.50
2018-07-02T16:10:09.231Z,3.10
2018-07-02T16:11:17.225Z,3.10
2018-07-02T16:12:23.495Z,2.50
2018-07-02T16:13:29.735Z,2.60
2018-07-02T16:14:35.892Z,2.40
2018-07-02T16:15:42.974Z,2.60
2018-07-02T16:16:49.217Z,2.50
2018-07-02T16:17:55.667Z,2.70
2018-07-02T16:19:01.941Z,2.80
2018-07-02T16:20:08.278Z,3.03
2018-07-02T16:21:15.439Z,2.50
2018-07-02T16:22:21.669Z,2.27
2018-07-02T16:23:28.578Z,2.40
2018-07-02T16:24:34.765Z,2.63
2018-07-02T16:25:42.326Z,2.63
2018-07-02T16:26:48.687Z,2.57
2018-07-02T16:27:55.859Z,2.47
2018-07-02T16:29:02.815Z,2.70
2018-07-02T16:30:10.520Z,2.40
2018-07-02T16:31:16.963Z,2.63
2018-07-02T16:32:23.335Z,2.67
2018-07-02T16:33:29.587Z,2.70
2018-07-02T16:34:36.228Z,2.57
2018-07-02T16:35:42.338Z,2.57
2018-07-02T16:36:48.317Z,2.50
2018-07-02T16:37:54.404Z,2.80
2018-07-02T16:39:00.625Z,2.10
2018-07-02T16:40:07.032Z,2.80
2018-07-02T16:41:14.125Z,2.50
2018-07-02T16:42:20.168Z,2.47
2018-07-02T16:43:26.779Z,2.40
2018-07-02T16:44:32.848Z,2.90
2018-07-02T16:45:38.802Z,2.80
2018-07-02T16:46:45.340Z,2.47
2018-07-02T16:47:51.652Z,2.30
2018-07-02T16:49:01.303Z,2.53
2018-07-02T16:51:00.319Z,2.90
2018-07-02T16:52:06.533Z,2.50
2018-07-02T16:53:12.593Z,2.70
2018-07-02T16:54:18.741Z,2.53
2018-07-02T16:55:24.873Z,2.60
2018-07-02T16:56:33.333Z,2.53
2018-07-02T16:57:39.365Z,2.90
2018-07-02T16:58:45.487Z,2.47
2018-07-02T16:59:51.597Z,2.20
2018-07-02T17:00:57.653Z,2.80
2018-07-02T17:02:04.584Z,2.63
2018-07-02T17:03:10.914Z,2.17
2018-07-02T17:04:17.601Z,2.33
2018-07-02T17:05:23.889Z,2.37
2018-07-02T17:06:30.002Z,2.80
2018-07-02T17:07:36.239Z,2.70
2018-07-02T17:08:43.125Z,2.60
2018-07-02T17:09:51.065Z,2.33
2018-07-02T17:10:57.327Z,2.50
2018-07-02T17:12:03.386Z,2.80
2018-07-02T17:13:09.939Z,3.07
2018-07-02T17:14:16.046Z,2.97
2018-07-02T17:15:22.067Z,2.97
2018-07-02T17:16:28.119Z,3.73
2018-07-02T17:17:37.743Z,2.83
2018-07-02T17:18:44.172Z,2.93
2018-07-02T17:19:50.389Z,3.90
2018-07-02T17:20:58.080Z,3.03
2018-07-02T17:22:04.462Z,3.63
2018-07-02T17:23:13.141Z,2.70
2018-07-02T17:24:19.511Z,2.90
2018-07-02T17:25:25.663Z,3.87
2018-07-02T17:26:32.826Z,2.70
2018-07-02T17:27:38.891Z,2.90
2018-07-02T17:28:44.891Z,2.90
2018-07-02T17:29:50.956Z,3.10
2018-07-02T17:30:57.202Z,2.70
2018-07-02T17:32:03.297Z,2.87
2018-07-02T17:33:09.380Z,2.83
2018-07-02T17:34:15.551Z,2.97
2018-07-02T17:35:22.555Z,2.80
2018-07-02T17:36:29.591Z,3.33
2018-07-02T17:37:36.383Z,4.10
2018-07-02T17:38:42.555Z,3.50
2018-07-02T17:39:48.772Z,3.67
2018-07-02T17:40:54.828Z,4.30
2018-07-02T17:42:00.950Z,4.53
2018-07-02T17:43:07.178Z,4.10
2018-07-02T17:44:15.302Z,4.23
2018-07-02T17:45:21.440Z,4.10
2018-07-02T17:46:27.514Z,4.47
2018-07-02T17:47:34.284Z,4.73
2018-07-02T17:48:40.291Z,5.20
2018-07-02T17:49:46.501Z,4.70
2018-07-02T17:50:54.114Z,4.73
2018-07-02T17:52:01.014Z,4.90
2018-07-02T17:53:07.272Z,4.80
2018-07-02T17:54:13.480Z,4.63
2018-07-02T17:55:19.628Z,4.97
2018-07-02T17:56:26.679Z,5.50
2018-07-02T17:57:33.736Z,4.80
2018-07-02T17:58:39.954Z,5.60
2018-07-02T17:59:46.091Z,4.80
2018-07-02T18:00:52.657Z,5.40
2018-07-02T18:01:58.856Z,4.97
2018-07-02T18:03:05.088Z,4.87
2018-07-02T18:04:12.274Z,5.10
2018-07-02T18:05:18.489Z,5.20
2018-07-02T18:06:24.757Z,5.67
2018-07-02T18:07:32.586Z,6.07
2018-07-02T18:08:40.169Z,5.43
2018-07-02T18:09:47.253Z,4.93
2018-07-02T18:10:54.419Z,4.80
2018-07-02T18:12:01.426Z,5.20
2018-07-02T18:13:08.800Z,5.77
2018-07-02T18:14:16.266Z,4.33
2018-07-02T18:15:23.411Z,5.70
2018-07-02T18:16:29.579Z,5.00
2018-07-02T18:17:35.664Z,5.47
2018-07-02T18:18:41.952Z,5.20
2018-07-02T18:19:48.193Z,5.30
2018-07-02T18:20:54.464Z,4.83
2018-07-02T18:22:00.868Z,5.40
2018-07-02T18:23:07.145Z,5.37
2018-07-02T18:24:14.140Z,5.20
2018-07-02T18:25:20.447Z,5.73
2018-07-02T18:26:26.797Z,4.77
2018-07-02T18:27:33.068Z,4.80
2018-07-02T18:28:39.614Z,5.40
2018-07-02T18:29:45.831Z,5.30
2018-07-02T18:30:51.884Z,4.90
2018-07-02T18:31:58.093Z,5.60
2018-07-02T18:33:05.036Z,5.40
2018-07-02T18:34:11.172Z,4.97
2018-07-02T18:35:17.428Z,5.33
2018-07-02T18:36:24.421Z,5.07
2018-07-02T18:37:31.421Z,4.93
2018-07-02T18:38:39.015Z,4.80
2018-07-02T18:39:45.147Z,4.70
2018-07-02T18:40:53.211Z,4.83
2018-07-02T18:41:59.285Z,4.80
2018-07-02T18:43:06.542Z,4.73
2018-07-02T18:44:13.923Z,5.10
2018-07-02T18:45:20.619Z,5.37
2018-07-02T18:46:28.737Z,4.50
2018-07-02T18:47:36.135Z,4.50
2018-07-02T18:48:42.450Z,5.07
2018-07-02T18:49:48.564Z,4.70
2018-07-02T18:50:56.537Z,4.47
2018-07-02T18:52:02.857Z,4.40
2018-07-02T18:53:10.127Z,4.87
2018-07-02T18:54:17.231Z,4.30
2018-07-02T18:55:24.296Z,4.60
2018-07-02T18:56:31.357Z,4.77
2018-07-02T18:57:37.557Z,4.77
2018-07-02T18:58:45.738Z,5.40
2018-07-02T18:59:52.069Z,4.80
2018-07-02T19:00:58.959Z,4.53
2018-07-02T19:02:06.199Z,4.80
2018-07-02T19:03:14.635Z,4.47
2018-07-02T19:04:20.905Z,4.30
2018-07-02T19:05:27.899Z,4.43
2018-07-02T19:06:35.109Z,3.93
2018-07-02T19:07:42.423Z,4.60
2018-07-02T19:08:50.423Z,4.30
2018-07-02T19:09:56.513Z,4.40
2018-07-02T19:11:04.615Z,4.97
2018-07-02T19:12:10.935Z,4.67
2018-07-02T19:13:21.219Z,4.13
2018-07-02T19:14:27.479Z,4.27
2018-07-02T19:15:34.638Z,4.50
2018-07-02T19:16:41.834Z,4.43
2018-07-02T19:17:50.527Z,4.47
2018-07-02T19:18:57.739Z,4.13
2018-07-02T19:20:15.465Z,4.73
2018-07-02T19:21:21.701Z,4.07
2018-07-02T19:22:27.717Z,4.30
2018-07-02T19:23:34.941Z,4.67
2018-07-02T19:24:41.993Z,4.47
2018-07-02T19:25:48.092Z,4.40
2018-07-02T19:26:56.590Z,4.47
2018-07-02T19:28:02.908Z,3.90
2018-07-02T19:29:08.987Z,4.70
2018-07-02T19:30:15.415Z,4.30
2018-07-02T19:31:21.975Z,4.53
2018-07-02T19:32:28.939Z,4.90
2018-07-02T19:33:35.979Z,4.90
2018-07-02T19:34:42.243Z,4.80
2018-07-02T19:35:50.217Z,4.60
2018-07-02T19:36:56.453Z,4.50
2018-07-02T19:38:02.704Z,4.90
2018-07-02T19:39:14.645Z,5.07
2018-07-02T19:40:21.167Z,4.50
2018-07-02T19:41:27.281Z,5.20